Enugu, Nigeria
Current Conditions -  °F | °C
As of 1:00 PM on Wednesday 26 Nov 2014 (Local Time) from FGSL Reporting Station
Broken Clouds Broken Clouds  
Wind Chill: 82°   Ceiling: 8000
Heat Index: 89°   Visibility: 5mi
Dew Point: 75°   Wind: 6mph
Humidity: 79%   Direction: 250°WSW
Pressure: 29.85"   Gusts: NA
Location:  6.33°N, 7.5°E
Report Text: FGSL 261200Z 25005KT 200V290 8000 SCT010 FEW020CB BKN080 28/24 Q1011 NOSIG
Loading
Personal Weather Stations






























Interactive Weather Map New forecast layout! Learn more

10-Day Weather Forecast

Advertisements
Track Severe Weather on mobile